Time;durP1;ratioP1;P1;durP2;ratioP2;P2;SDS_P1;SDS_P2;PMS_P1;PMS_P2;Temp;Humidity;BMP_temperature;BMP_pressure;BME280_temperature;BME280_humidity;BME280_pressure;Samples;Min_cycle;Max_cycle;Signal;HPM_P1;HPM_P2
2022/10/22 00:00:52;;;;;;;7.45;4.38;;;14.30;99.90;;;;;;5050394;28;20045;-54
2022/10/22 00:03:17;;;;;;;4.15;3.80;;;14.40;99.90;;;;;;5058125;28;20386;-52
2022/10/22 00:05:43;;;;;;;8.40;4.65;;;14.40;99.90;;;;;;5066916;28;20505;-53
2022/10/22 00:08:09;;;;;;;9.35;3.92;;;14.40;99.90;;;;;;5058125;28;20029;-52
2022/10/22 00:10:37;;;;;;;7.47;3.70;;;14.40;99.90;;;;;;5051119;28;20029;-53
2022/10/22 00:13:02;;;;;;;6.55;3.97;;;14.40;99.90;;;;;;5055546;28;20050;-54
2022/10/22 00:15:28;;;;;;;6.40;4.68;;;14.30;99.90;;;;;;5064492;28;20037;-51
2022/10/22 00:17:54;;;;;;;4.90;4.45;;;14.30;99.90;;;;;;5052665;28;20464;-51
2022/10/22 00:20:19;;;;;;;6.00;3.97;;;14.30;99.90;;;;;;5062470;28;20440;-51
2022/10/22 00:22:45;;;;;;;10.40;5.18;;;14.30;99.90;;;;;;5052861;28;20029;-51
2022/10/22 00:25:10;;;;;;;8.82;5.10;;;14.20;99.90;;;;;;5058923;28;20056;-52
2022/10/22 00:27:36;;;;;;;11.30;5.28;;;14.20;99.90;;;;;;5051162;28;20580;-51
2022/10/22 00:30:01;;;;;;;4.90;4.43;;;14.20;99.90;;;;;;5053199;28;20060;-50
2022/10/22 00:32:27;;;;;;;5.88;4.70;;;14.20;99.90;;;;;;5069184;28;20036;-51
2022/10/22 00:34:52;;;;;;;6.55;5.03;;;14.20;99.90;;;;;;5052534;28;20448;-52
2022/10/22 00:37:18;;;;;;;15.48;5.70;;;14.20;99.90;;;;;;5055919;28;20150;-50
2022/10/22 00:39:43;;;;;;;8.13;5.72;;;14.20;99.90;;;;;;5065492;28;20535;-52
2022/10/22 00:42:17;;;;;;;7.70;5.10;;;14.20;99.90;;;;;;5052134;28;20032;-51
2022/10/22 00:45:10;;;;;;;6.00;4.25;;;14.10;99.90;;;;;;5051739;28;20075;-51
2022/10/22 00:47:42;;;;;;;7.10;5.00;;;14.10;99.90;;;;;;5049385;28;20048;-50
2022/10/22 00:50:19;;;;;;;8.73;5.00;;;14.10;99.90;;;;;;5051000;28;20071;-53
2022/10/22 00:52:46;;;;;;;7.55;4.43;;;14.10;99.90;;;;;;5050993;28;20048;-51
2022/10/22 00:55:13;;;;;;;8.88;5.90;;;14.10;99.90;;;;;;5063651;28;20119;-52
2022/10/22 00:57:39;;;;;;;10.38;4.63;;;14.10;99.90;;;;;;5069777;28;20032;-51
2022/10/22 01:00:05;;;;;;;8.05;4.70;;;14.10;99.90;;;;;;5066194;28;20043;-51
2022/10/22 01:02:31;;;;;;;6.72;5.20;;;14.10;99.90;;;;;;5066123;28;20045;-50
2022/10/22 01:04:56;;;;;;;6.95;4.90;;;14.00;99.90;;;;;;5060647;28;20036;-51
2022/10/22 01:07:24;;;;;;;8.90;4.83;;;14.00;99.90;;;;;;5065666;28;20070;-52
2022/10/22 01:10:07;;;;;;;6.97;4.20;;;14.00;99.90;;;;;;5062127;28;20290;-52
2022/10/22 01:12:53;;;;;;;7.03;4.50;;;13.90;99.90;;;;;;5066606;28;20485;-50
2022/10/22 01:15:42;;;;;;;7.10;4.63;;;13.90;99.90;;;;;;5057694;28;20082;-51
2022/10/22 01:18:20;;;;;;;5.60;4.55;;;13.90;99.90;;;;;;5054309;28;20429;-50
2022/10/22 01:20:49;;;;;;;6.15;4.82;;;13.90;99.90;;;;;;5050322;28;20067;-54
2022/10/22 01:23:24;;;;;;;14.57;5.50;;;13.90;99.90;;;;;;5053081;28;20045;-52
2022/10/22 01:26:11;;;;;;;6.03;4.38;;;13.80;99.90;;;;;;5050952;28;20041;-51
2022/10/22 01:29:03;;;;;;;10.50;5.07;;;13.80;99.90;;;;;;5050270;28;20037;-52
2022/10/22 01:31:35;;;;;;;5.43;4.35;;;13.70;99.90;;;;;;5050204;28;20130;-53
2022/10/22 01:34:02;;;;;;;6.72;4.50;;;13.70;99.90;;;;;;5051660;28;20090;-53
2022/10/22 01:36:30;;;;;;;8.38;6.00;;;13.70;99.90;;;;;;5070068;28;20052;-51
2022/10/22 01:38:59;;;;;;;7.97;4.72;;;13.70;99.90;;;;;;5058985;28;20401;-51
2022/10/22 01:41:27;;;;;;;8.60;4.75;;;13.70;99.90;;;;;;5050018;28;20044;-54
2022/10/22 01:43:53;;;;;;;9.30;4.40;;;13.70;99.90;;;;;;5056744;28;20094;-51
2022/10/22 01:46:21;;;;;;;9.23;4.80;;;13.60;99.90;;;;;;5049913;28;20037;-51
2022/10/22 01:49:12;;;;;;;6.70;4.70;;;13.60;99.90;;;;;;5049656;28;20052;-54
2022/10/22 01:51:50;;;;;;;7.30;4.40;;;13.60;99.90;;;;;;5063158;28;20041;-50
2022/10/22 01:54:30;;;;;;;6.57;5.15;;;13.60;99.90;;;;;;5052096;28;20076;-51
2022/10/22 01:57:36;;;;;;;8.13;5.63;;;13.50;99.90;;;;;;5068323;28;20040;-52
2022/10/22 02:00:06;;;;;;;5.70;4.30;;;13.50;99.90;;;;;;5047187;28;20429;-51
2022/10/22 02:02:48;;;;;;;7.50;4.78;;;13.50;99.90;;;;;;5067626;28;20051;-55
2022/10/22 02:05:48;;;;;;;11.75;5.10;;;13.50;99.90;;;;;;5071413;28;20390;-53
2022/10/22 02:08:19;;;;;;;7.75;5.22;;;13.50;99.90;;;;;;5073827;28;20043;-51
2022/10/22 02:10:46;;;;;;;5.95;4.93;;;13.50;99.90;;;;;;5060018;28;20041;-55
2022/10/22 02:13:16;;;;;;;8.82;5.07;;;13.50;99.90;;;;;;5053235;28;20045;-51
2022/10/22 02:15:44;;;;;;;9.75;5.40;;;13.50;99.90;;;;;;5065956;28;20143;-54
2022/10/22 02:18:11;;;;;;;10.10;6.78;;;13.50;99.90;;;;;;5064704;28;20045;-52
2022/10/22 02:20:39;;;;;;;9.23;5.82;;;13.50;99.90;;;;;;5064818;28;20188;-51
2022/10/22 02:23:05;;;;;;;14.43;6.55;;;13.40;99.90;;;;;;5063560;28;20037;-54
2022/10/22 02:25:34;;;;;;;8.02;5.40;;;13.40;99.90;;;;;;5061880;28;20059;-54
2022/10/22 02:28:27;;;;;;;8.60;5.00;;;13.40;99.90;;;;;;5073450;28;20067;-53
2022/10/22 02:30:57;;;;;;;12.52;6.43;;;13.30;99.90;;;;;;5064964;28;20424;-55
2022/10/22 02:33:31;;;;;;;12.68;6.18;;;13.30;99.90;;;;;;5069430;28;20036;-55
2022/10/22 02:35:58;;;;;;;6.47;5.72;;;13.30;99.90;;;;;;5061930;28;20041;-53
2022/10/22 02:38:26;;;;;;;8.95;5.95;;;13.30;99.90;;;;;;5068655;28;20037;-54
2022/10/22 02:40:51;;;;;;;9.13;6.18;;;13.30;99.90;;;;;;5062808;28;20045;-53
2022/10/22 02:43:18;;;;;;;7.20;6.10;;;13.30;99.90;;;;;;5055386;28;20037;-52
2022/10/22 02:45:44;;;;;;;7.68;6.07;;;13.30;99.90;;;;;;5061141;28;20035;-51
2022/10/22 02:48:10;;;;;;;14.20;6.30;;;13.20;99.90;;;;;;5061273;28;20047;-51
2022/10/22 02:50:35;;;;;;;13.10;6.45;;;13.20;99.90;;;;;;5059767;28;20497;-51
2022/10/22 02:53:01;;;;;;;14.38;6.88;;;13.10;99.90;;;;;;5062257;28;20045;-51
2022/10/22 02:55:26;;;;;;;11.93;7.43;;;13.10;99.90;;;;;;5057054;28;20400;-52
2022/10/22 02:57:52;;;;;;;10.68;7.38;;;13.10;99.90;;;;;;5070083;28;20356;-50
2022/10/22 03:00:20;;;;;;;12.30;7.35;;;13.00;99.90;;;;;;5070489;28;20033;-50
2022/10/22 03:02:45;;;;;;;16.10;8.50;;;13.00;99.90;;;;;;5068137;28;20044;-51
2022/10/22 03:05:11;;;;;;;8.53;7.17;;;13.00;99.90;;;;;;5062972;28;20043;-52
2022/10/22 03:07:37;;;;;;;10.93;7.73;;;13.00;99.90;;;;;;5055850;28;20287;-51
2022/10/22 03:10:03;;;;;;;9.40;7.43;;;13.00;99.90;;;;;;5071041;28;20707;-50
2022/10/22 03:12:28;;;;;;;14.32;7.88;;;13.10;99.90;;;;;;5070163;28;20033;-50
2022/10/22 03:14:54;;;;;;;12.23;7.55;;;13.10;99.90;;;;;;5053708;28;20086;-51
2022/10/22 03:17:19;;;;;;;14.35;8.43;;;13.10;99.90;;;;;;5071872;28;20037;-51
2022/10/22 03:19:45;;;;;;;11.60;8.37;;;13.10;99.90;;;;;;5053423;28;20045;-50
2022/10/22 03:22:16;;;;;;;9.98;7.93;;;13.20;99.90;;;;;;5052571;28;20047;-51
2022/10/22 03:24:45;;;;;;;14.63;8.02;;;13.20;99.90;;;;;;5064853;28;20040;-52
2022/10/22 03:27:13;;;;;;;10.35;7.90;;;13.20;99.90;;;;;;5052388;28;20255;-52
2022/10/22 03:29:39;;;;;;;13.20;9.60;;;13.10;99.90;;;;;;5067444;28;20041;-53
2022/10/22 03:32:05;;;;;;;22.55;9.18;;;13.10;99.90;;;;;;5053148;28;20044;-51
2022/10/22 03:34:31;;;;;;;15.90;8.32;;;13.10;99.90;;;;;;5052894;28;20041;-53
2022/10/22 03:36:59;;;;;;;12.88;8.02;;;13.10;99.90;;;;;;5067775;28;20033;-51
2022/10/22 03:39:25;;;;;;;12.00;7.50;;;13.10;99.90;;;;;;5064715;28;20041;-51
2022/10/22 03:41:52;;;;;;;11.63;8.02;;;13.10;99.90;;;;;;5058245;28;20089;-51
2022/10/22 03:44:19;;;;;;;12.68;8.32;;;13.10;99.90;;;;;;5061653;28;20028;-51
2022/10/22 03:46:44;;;;;;;12.25;8.40;;;13.10;99.90;;;;;;5051795;28;20490;-51
2022/10/22 03:49:10;;;;;;;15.03;7.90;;;13.10;99.90;;;;;;5062653;28;20051;-51
2022/10/22 03:51:35;;;;;;;12.77;8.27;;;13.10;99.90;;;;;;5063875;28;20048;-51
2022/10/22 03:54:02;;;;;;;14.65;8.52;;;13.10;99.90;;;;;;5060061;28;20470;-51
2022/10/22 03:56:28;;;;;;;10.80;8.32;;;13.10;99.90;;;;;;5071574;28;20040;-50
2022/10/22 03:58:58;;;;;;;14.80;8.48;;;13.10;99.90;;;;;;5064172;28;20108;-50
2022/10/22 04:01:24;;;;;;;16.83;7.93;;;13.20;99.90;;;;;;5053047;28;20116;-52
2022/10/22 04:03:50;;;;;;;13.10;7.35;;;13.10;99.90;;;;;;5068547;28;20036;-53
2022/10/22 04:06:16;;;;;;;19.92;8.88;;;13.20;99.90;;;;;;5070199;28;20037;-50
2022/10/22 04:08:43;;;;;;;10.95;7.18;;;13.10;99.90;;;;;;5063737;28;20070;-50
2022/10/22 04:11:10;;;;;;;15.75;8.68;;;13.10;99.90;;;;;;5052405;28;20072;-51
2022/10/22 04:13:36;;;;;;;20.25;8.57;;;13.10;99.90;;;;;;5058745;28;20041;-51
2022/10/22 04:16:09;;;;;;;9.00;7.28;;;13.10;99.90;;;;;;5058225;28;20397;-51
2022/10/22 04:18:35;;;;;;;15.68;8.15;;;13.20;99.90;;;;;;5068964;28;20041;-55
2022/10/22 04:21:01;;;;;;;14.90;9.25;;;13.10;99.90;;;;;;5050787;28;20367;-51
2022/10/22 04:23:26;;;;;;;17.95;8.85;;;13.10;99.90;;;;;;5055628;28;20042;-51
2022/10/22 04:26:04;;;;;;;13.38;7.80;;;13.20;99.90;;;;;;5064129;28;20158;-51
2022/10/22 04:28:29;;;;;;;12.68;7.03;;;13.20;99.90;;;;;;5070725;28;20090;-51
2022/10/22 04:30:55;;;;;;;16.00;8.35;;;13.10;99.90;;;;;;5061572;28;20032;-51
2022/10/22 04:33:21;;;;;;;12.35;8.10;;;13.20;99.90;;;;;;5068494;28;20452;-54
2022/10/22 04:35:46;;;;;;;15.60;7.95;;;13.20;99.90;;;;;;5054418;28;20391;-54
2022/10/22 04:38:12;;;;;;;19.10;9.53;;;13.10;99.90;;;;;;5055992;28;20032;-52
2022/10/22 04:40:38;;;;;;;11.32;7.85;;;13.10;99.90;;;;;;5053689;28;20353;-54
2022/10/22 04:43:04;;;;;;;14.20;8.27;;;13.10;99.90;;;;;;5050318;28;20086;-52
2022/10/22 04:45:31;;;;;;;21.73;9.27;;;13.10;99.90;;;;;;5055855;28;20032;-51
2022/10/22 04:47:56;;;;;;;20.00;9.77;;;13.10;99.90;;;;;;5050501;28;20084;-54
2022/10/22 04:50:22;;;;;;;15.23;8.80;;;13.10;99.90;;;;;;5054102;28;20043;-51
2022/10/22 04:52:47;;;;;;;17.47;9.03;;;13.10;99.90;;;;;;5051927;28;20051;-51
2022/10/22 04:55:13;;;;;;;16.30;8.50;;;13.10;99.90;;;;;;5054444;28;20365;-52
2022/10/22 04:57:38;;;;;;;13.85;8.23;;;13.10;99.90;;;;;;5050851;28;20045;-53
2022/10/22 05:00:04;;;;;;;14.23;9.13;;;13.10;99.90;;;;;;5055335;28;20076;-50
2022/10/22 05:02:30;;;;;;;19.92;9.18;;;13.10;99.90;;;;;;5049242;28;20107;-52
2022/10/22 05:04:55;;;;;;;14.67;8.83;;;13.20;99.90;;;;;;5058263;28;20460;-51
2022/10/22 05:07:22;;;;;;;17.00;8.98;;;13.10;99.90;;;;;;5068797;28;20382;-51
2022/10/22 05:09:48;;;;;;;16.77;9.13;;;13.10;99.90;;;;;;5067254;28;20080;-53
2022/10/22 05:12:13;;;;;;;21.23;9.73;;;13.10;99.90;;;;;;5064450;28;20110;-52
2022/10/22 05:14:39;;;;;;;15.70;9.17;;;13.10;99.90;;;;;;5061186;28;20045;-53
2022/10/22 05:17:04;;;;;;;26.88;10.30;;;13.10;99.90;;;;;;5064222;28;20283;-51
2022/10/22 05:19:30;;;;;;;16.73;8.33;;;13.10;99.90;;;;;;5065513;28;20386;-51
2022/10/22 05:21:59;;;;;;;16.65;9.50;;;13.10;99.90;;;;;;5059034;28;20290;-52
2022/10/22 05:24:25;;;;;;;16.95;8.55;;;13.10;99.90;;;;;;5057315;28;20037;-50
2022/10/22 05:26:51;;;;;;;;;;;13.10;99.90;;;;;;5054048;28;20052;-51
2022/10/22 05:29:17;;;;;;;15.55;8.90;;;13.10;99.90;;;;;;5063529;28;19924;-51
2022/10/22 05:31:43;;;;;;;15.40;9.48;;;13.20;99.90;;;;;;5068268;28;20040;-50
2022/10/22 05:34:08;;;;;;;15.82;8.80;;;13.20;99.90;;;;;;5062776;28;20044;-51
2022/10/22 05:36:34;;;;;;;12.25;8.57;;;13.20;99.90;;;;;;5053078;28;20033;-52
2022/10/22 05:39:00;;;;;;;17.60;9.35;;;13.20;99.90;;;;;;5063175;28;20036;-51
2022/10/22 05:41:27;;;;;;;16.77;9.13;;;13.20;99.90;;;;;;5066285;28;20114;-51
2022/10/22 05:43:56;;;;;;;17.17;8.63;;;13.20;99.90;;;;;;5050728;28;20306;-53
2022/10/22 05:46:23;;;;;;;15.02;8.68;;;13.30;99.90;;;;;;5053456;28;20047;-53
2022/10/22 05:48:51;;;;;;;13.55;8.65;;;13.30;99.90;;;;;;5054809;28;20041;-51
2022/10/22 05:51:16;;;;;;;16.15;8.13;;;13.30;99.90;;;;;;5052438;28;20047;-52
2022/10/22 05:53:42;;;;;;;19.13;8.88;;;13.30;99.90;;;;;;5069577;28;20040;-51
2022/10/22 05:56:14;;;;;;;15.98;8.98;;;13.30;99.90;;;;;;5067146;28;20028;-51
2022/10/22 05:58:39;;;;;;;16.88;8.68;;;13.40;99.90;;;;;;5056427;28;20046;-50
2022/10/22 06:01:17;;;;;;;11.57;8.05;;;13.30;99.90;;;;;;5059416;28;20111;-51
2022/10/22 06:03:44;;;;;;;16.77;8.95;;;13.30;99.90;;;;;;5049359;28;20540;-51
2022/10/22 06:06:24;;;;;;;13.70;8.40;;;13.30;99.90;;;;;;5057672;28;20064;-53
2022/10/22 06:08:52;;;;;;;18.45;8.65;;;13.30;99.90;;;;;;5059851;28;20047;-52
2022/10/22 06:11:19;;;;;;;16.83;8.82;;;13.40;99.90;;;;;;5049243;28;20099;-50
2022/10/22 06:13:45;;;;;;;18.50;7.80;;;13.40;99.90;;;;;;5050179;28;20052;-51
2022/10/22 06:16:11;;;;;;;16.52;9.05;;;13.40;99.90;;;;;;5056096;28;20047;-52
2022/10/22 06:18:37;;;;;;;14.88;7.70;;;13.40;99.90;;;;;;5058295;28;20037;-54
2022/10/22 06:21:09;;;;;;;12.95;8.23;;;13.40;99.90;;;;;;5056923;28;20032;-52
2022/10/22 06:23:36;;;;;;;18.88;7.75;;;13.50;99.90;;;;;;5057222;28;20040;-52
2022/10/22 06:26:02;;;;;;;18.65;8.60;;;13.50;99.90;;;;;;5056823;28;20041;-51
2022/10/22 06:28:27;;;;;;;18.02;9.18;;;13.50;99.90;;;;;;5057547;28;20040;-51
2022/10/22 06:30:53;;;;;;;14.23;7.25;;;13.50;99.90;;;;;;5058963;28;20044;-54
2022/10/22 06:33:18;;;;;;;13.63;7.70;;;13.60;99.90;;;;;;5051718;28;20044;-51
2022/10/22 06:35:44;;;;;;;10.50;7.15;;;13.60;99.90;;;;;;5060698;28;20283;-52
2022/10/22 06:38:10;;;;;;;15.30;7.65;;;13.60;99.90;;;;;;5064665;28;20485;-51
2022/10/22 06:40:36;;;;;;;12.10;7.40;;;13.60;99.90;;;;;;5056987;28;20067;-55
2022/10/22 06:43:02;;;;;;;11.27;6.25;;;13.70;99.90;;;;;;5056867;28;20494;-55
2022/10/22 06:45:28;;;;;;;16.10;8.13;;;13.80;99.90;;;;;;5062906;28;20028;-51
2022/10/22 06:47:54;;;;;;;14.63;8.43;;;13.80;99.90;;;;;;5073002;28;20067;-56
2022/10/22 06:50:20;;;;;;;;;;;13.80;99.90;;;;;;5071911;28;20048;-55
2022/10/22 06:52:46;;;;;;;15.98;7.53;;;13.80;99.90;;;;;;5071858;28;19916;-55
2022/10/22 06:55:11;;;;;;;11.93;7.25;;;13.80;99.90;;;;;;5072517;28;20182;-53
2022/10/22 06:57:37;;;;;;;13.73;7.40;;;13.80;99.90;;;;;;5053966;28;20044;-52
2022/10/22 07:00:05;;;;;;;15.20;7.47;;;13.80;99.90;;;;;;5053040;28;20124;-55
2022/10/22 07:02:30;;;;;;;17.08;7.10;;;13.80;99.90;;;;;;5067103;28;20033;-52
2022/10/22 07:04:56;;;;;;;10.73;7.30;;;13.80;99.90;;;;;;5075078;28;20042;-56
2022/10/22 07:07:21;;;;;;;12.32;6.93;;;13.80;99.90;;;;;;5071658;28;20032;-53
2022/10/22 07:09:48;;;;;;;16.10;8.50;;;13.80;99.90;;;;;;5072764;28;20489;-54
2022/10/22 07:12:14;;;;;;;12.23;7.35;;;13.90;99.90;;;;;;5070362;28;20313;-51
2022/10/22 07:14:39;;;;;;;;;;;13.90;99.90;;;;;;5069126;28;20390;-56
2022/10/22 07:17:05;;;;;;;16.30;7.50;;;14.00;99.90;;;;;;5072397;28;19939;-55
2022/10/22 07:19:30;;;;;;;15.38;7.38;;;14.00;99.90;;;;;;5071645;28;20076;-54
2022/10/22 07:21:56;;;;;;;13.85;6.20;;;14.00;99.90;;;;;;5064458;28;20032;-52
2022/10/22 07:24:22;;;;;;;13.32;6.80;;;14.10;99.90;;;;;;5071279;28;20032;-55
2022/10/22 07:26:48;;;;;;;21.55;7.32;;;14.10;99.90;;;;;;5072411;28;20068;-54
2022/10/22 07:29:14;;;;;;;15.73;6.80;;;14.20;99.90;;;;;;5069273;28;20071;-56
2022/10/22 07:31:40;;;;;;;14.65;7.75;;;14.20;99.90;;;;;;5055307;28;20052;-56
2022/10/22 07:34:06;;;;;;;;;;;14.30;99.90;;;;;;5058138;28;20029;-55
2022/10/22 07:36:32;;;;;;;11.70;6.32;;;14.40;99.90;;;;;;5069710;28;19961;-55
2022/10/22 07:38:58;;;;;;;12.90;6.00;;;14.50;99.90;;;;;;5071680;28;20121;-55
2022/10/22 07:41:25;;;;;;;12.93;5.57;;;14.60;99.90;;;;;;5057178;28;20025;-56
2022/10/22 07:43:51;;;;;;;15.70;5.60;;;14.70;99.90;;;;;;5071155;28;20036;-51
2022/10/22 07:46:17;;;;;;;13.77;6.75;;;14.80;99.90;;;;;;5070476;28;20570;-54
2022/10/22 07:48:42;;;;;;;13.05;5.57;;;14.80;99.90;;;;;;5071484;28;20064;-52
2022/10/22 07:51:08;;;;;;;16.65;5.85;;;14.90;99.90;;;;;;5068422;28;20110;-52
2022/10/22 07:53:34;;;;;;;15.10;5.90;;;14.80;99.90;;;;;;5062664;28;20032;-55
2022/10/22 07:56:00;;;;;;;11.00;5.95;;;14.80;99.90;;;;;;5071195;28;20029;-53
2022/10/22 07:58:25;;;;;;;10.75;5.95;;;14.80;99.90;;;;;;5060581;28;20043;-52
2022/10/22 08:00:55;;;;;;;13.87;6.33;;;14.80;99.90;;;;;;5070427;28;20274;-53
2022/10/22 08:03:21;;;;;;;12.27;5.95;;;14.70;99.90;;;;;;5054869;28;20324;-52
2022/10/22 08:05:46;;;;;;;10.32;5.40;;;14.70;99.90;;;;;;5050537;28;20045;-52
2022/10/22 08:08:13;;;;;;;13.05;6.32;;;14.70;99.90;;;;;;5059266;28;20025;-56
2022/10/22 08:10:39;;;;;;;11.77;5.50;;;14.70;99.90;;;;;;5071008;28;20037;-54
2022/10/22 08:13:06;;;;;;;12.85;6.07;;;14.70;99.90;;;;;;5058364;28;20174;-51
2022/10/22 08:15:32;;;;;;;18.13;6.82;;;14.70;99.90;;;;;;5070260;28;20379;-52
2022/10/22 08:17:58;;;;;;;13.60;5.88;;;14.60;99.90;;;;;;5060504;28;20456;-54
2022/10/22 08:20:23;;;;;;;13.57;6.35;;;14.60;99.90;;;;;;5071227;28;20059;-52
2022/10/22 08:22:49;;;;;;;14.95;6.15;;;14.60;99.90;;;;;;5058612;28;20037;-51
2022/10/22 08:25:14;;;;;;;16.15;5.57;;;14.50;99.90;;;;;;5052437;28;20074;-53
2022/10/22 08:27:40;;;;;;;10.27;5.68;;;14.60;99.90;;;;;;5061694;28;20080;-51
2022/10/22 08:30:06;;;;;;;12.00;5.65;;;14.60;99.90;;;;;;5071418;28;20036;-50
2022/10/22 08:32:32;;;;;;;10.40;6.38;;;14.60;99.90;;;;;;5070100;28;20036;-50
2022/10/22 08:34:58;;;;;;;13.48;6.68;;;14.60;99.90;;;;;;5070181;28;20086;-50
2022/10/22 08:37:24;;;;;;;15.38;5.82;;;14.60;99.90;;;;;;5068361;28;20047;-51
2022/10/22 08:39:50;;;;;;;11.45;5.68;;;14.70;99.90;;;;;;5069164;28;20036;-50
2022/10/22 08:42:48;;;;;;;12.38;5.15;;;14.90;99.90;;;;;;5066464;28;20039;-50
2022/10/22 08:45:26;;;;;;;10.75;5.60;;;15.10;99.90;;;;;;5067918;28;20059;-50
2022/10/22 08:48:09;;;;;;;16.48;4.85;;;15.30;99.90;;;;;;5059373;28;20040;-52
2022/10/22 08:50:37;;;;;;;10.77;5.72;;;15.50;99.90;;;;;;5048942;28;20044;-52
2022/10/22 08:53:12;;;;;;;14.05;4.85;;;15.60;99.90;;;;;;5051421;28;20444;-50
2022/10/22 08:55:38;;;;;;;11.20;4.90;;;15.80;99.90;;;;;;5061346;28;20036;-51
2022/10/22 08:58:14;;;;;;;10.60;4.65;;;15.90;99.90;;;;;;5067555;28;20040;-51
2022/10/22 09:01:01;;;;;;;6.47;4.10;;;15.90;99.90;;;;;;5050609;28;20219;-51
2022/10/22 09:03:42;;;;;;;11.75;4.68;;;16.10;99.90;;;;;;5056529;28;20045;-51
2022/10/22 09:06:24;;;;;;;8.93;4.18;;;16.20;99.90;;;;;;5055766;28;20558;-50
2022/10/22 09:08:51;;;;;;;11.82;4.65;;;16.20;99.90;;;;;;5064381;28;20071;-51
2022/10/22 09:11:26;;;;;;;9.75;4.22;;;16.30;99.90;;;;;;5065686;28;20028;-50
2022/10/22 09:13:54;;;;;;;14.13;4.33;;;16.30;99.90;;;;;;5061811;28;20502;-51
2022/10/22 09:17:08;;;;;;;11.35;4.30;;;16.30;99.90;;;;;;5067374;28;20497;-50
2022/10/22 09:19:43;;;;;;;15.80;4.63;;;16.40;99.90;;;;;;5063008;28;20048;-50
2022/10/22 09:22:25;;;;;;;11.80;4.22;;;16.50;99.90;;;;;;5052624;28;20032;-48
2022/10/22 09:24:58;;;;;;;9.70;3.08;;;16.50;99.90;;;;;;5052575;28;20510;-49
2022/10/22 09:27:29;;;;;;;9.25;3.97;;;16.50;99.90;;;;;;5069895;28;20209;-49
2022/10/22 09:29:55;;;;;;;8.02;3.85;;;16.40;99.90;;;;;;5055795;28;20443;-48
2022/10/22 09:32:21;;;;;;;11.90;3.35;;;16.30;99.90;;;;;;5050131;28;20040;-48
2022/10/22 09:34:48;;;;;;;13.93;4.78;;;16.30;99.90;;;;;;5058872;28;20500;-50
2022/10/22 09:37:17;;;;;;;13.23;3.83;;;16.20;99.90;;;;;;5070335;28;20048;-50
2022/10/22 09:39:49;;;;;;;11.82;3.20;;;16.20;99.90;;;;;;5068910;28;20068;-49
2022/10/22 09:42:17;;;;;;;14.13;4.07;;;16.10;99.90;;;;;;5080886;28;20416;-48
2022/10/22 09:44:43;;;;;;;7.47;3.58;;;16.10;99.90;;;;;;5059555;28;20048;-52
2022/10/22 09:47:48;;;;;;;14.23;3.83;;;16.00;99.90;;;;;;5048999;28;20041;-48
2022/10/22 09:50:27;;;;;;;6.68;2.90;;;15.90;99.90;;;;;;4976209;28;20151;-52
2022/10/22 09:53:30;;;;;;;11.20;3.45;;;15.90;99.90;;;;;;4987223;28;20637;-48
2022/10/22 09:56:08;;;;;;;18.95;4.18;;;15.80;99.90;;;;;;4975480;28;20054;-50
2022/10/22 09:58:44;;;;;;;15.73;3.75;;;15.80;99.90;;;;;;4968699;28;20035;-51
2022/10/22 10:01:17;;;;;;;8.65;3.78;;;15.80;99.90;;;;;;4977127;28;20432;-51
2022/10/22 10:03:43;;;;;;;17.33;3.45;;;15.80;99.90;;;;;;4968321;28;20074;-50
2022/10/22 10:06:08;;;;;;;11.55;3.33;;;15.80;99.90;;;;;;4954759;28;20077;-53
2022/10/22 10:08:34;;;;;;;12.80;3.33;;;15.80;99.90;;;;;;4985572;28;20046;-52
2022/10/22 10:11:10;;;;;;;7.38;2.78;;;15.80;99.90;;;;;;4985832;28;20066;-51
2022/10/22 10:13:52;;;;;;;15.52;3.35;;;15.80;99.90;;;;;;4986804;28;20077;-50
2022/10/22 10:16:26;;;;;;;6.50;3.10;;;15.80;99.90;;;;;;4980936;28;20659;-50
2022/10/22 10:19:29;;;;;;;14.93;3.15;;;15.80;99.90;;;;;;4977312;28;20043;-53
2022/10/22 10:22:06;;;;;;;5.70;3.10;;;15.70;99.90;;;;;;5053564;28;20158;-49
2022/10/22 10:25:08;;;;;;;10.27;3.80;;;15.70;99.90;;;;;;5072833;28;20037;-49
2022/10/22 10:27:39;;;;;;;14.93;3.67;;;15.70;99.90;;;;;;5059540;28;20521;-49
2022/10/22 10:30:15;;;;;;;10.98;3.63;;;15.70;99.90;;;;;;5061979;28;20403;-49
2022/10/22 10:32:53;;;;;;;12.43;3.53;;;15.80;99.90;;;;;;5073703;28;20435;-48
2022/10/22 10:35:27;;;;;;;9.05;3.03;;;15.80;99.90;;;;;;5072890;28;20286;-48
2022/10/22 10:38:33;;;;;;;9.68;3.58;;;15.70;99.90;;;;;;5073644;28;20044;-48
2022/10/22 10:41:10;;;;;;;8.93;3.88;;;15.70;99.90;;;;;;5050568;28;20076;-49
2022/10/22 10:43:54;;;;;;;12.02;4.10;;;15.80;99.90;;;;;;5065890;28;20040;-49
2022/10/22 10:46:32;;;;;;;14.90;3.58;;;15.80;99.90;;;;;;5061739;28;20040;-48
2022/10/22 10:48:59;;;;;;;13.65;3.83;;;15.80;99.90;;;;;;5067177;28;20115;-48
2022/10/22 10:51:55;;;;;;;9.90;3.60;;;15.80;99.90;;;;;;5067080;28;20048;-48
2022/10/22 10:54:59;;;;;;;15.10;3.92;;;15.80;99.90;;;;;;5035136;28;20049;-48
2022/10/22 10:57:50;;;;;;;9.82;3.45;;;15.90;99.90;;;;;;5047304;28;20049;-48
2022/10/22 11:00:21;;;;;;;11.57;4.50;;;15.90;99.90;;;;;;5063484;28;20063;-50
2022/10/22 11:03:19;;;;;;;10.02;4.07;;;15.90;99.90;;;;;;5072781;28;20406;-49
2022/10/22 11:05:56;;;;;;;16.92;5.07;;;15.90;99.90;;;;;;5056746;28;20041;-48
2022/10/22 11:08:36;;;;;;;7.88;4.32;;;15.80;99.90;;;;;;5052886;28;20044;-49
2022/10/22 11:11:12;;;;;;;10.10;5.07;;;15.80;99.90;;;;;;5054062;28;20501;-48
2022/10/22 11:13:37;;;;;;;16.73;5.50;;;15.70;99.90;;;;;;5050945;28;20040;-48
2022/10/22 11:16:43;;;;;;;13.03;3.60;;;15.70;99.90;;;;;;5069704;28;20178;-49
2022/10/22 11:19:36;;;;;;;8.32;4.60;;;15.70;99.90;;;;;;4989814;28;20170;-49
2022/10/22 11:22:18;;;;;;;11.02;4.95;;;15.70;99.90;;;;;;4990622;28;20509;-49
2022/10/22 11:24:54;;;;;;;12.45;5.60;;;15.70;99.90;;;;;;4989286;28;20046;-48
2022/10/22 11:27:40;;;;;;;6.82;4.70;;;15.70;99.90;;;;;;4979759;28;20471;-50
2022/10/22 11:30:19;;;;;;;11.00;5.22;;;15.70;99.90;;;;;;4981883;28;20125;-48
2022/10/22 11:33:09;;;;;;;9.32;4.22;;;15.80;99.90;;;;;;4989989;28;20042;-48
2022/10/22 11:35:39;;;;;;;13.35;5.28;;;15.80;99.90;;;;;;4979551;28;20035;-49
2022/10/22 11:38:08;;;;;;;12.63;5.22;;;15.80;99.90;;;;;;4971182;28;20039;-48
2022/10/22 11:40:37;;;;;;;11.35;6.15;;;15.80;99.90;;;;;;4976391;28;20679;-50
2022/10/22 11:43:05;;;;;;;15.50;5.53;;;15.90;99.90;;;;;;4990047;28;20058;-51
2022/10/22 11:45:36;;;;;;;11.57;5.45;;;16.00;99.90;;;;;;4981310;28;20102;-50
2022/10/22 11:48:10;;;;;;;16.17;5.85;;;16.00;99.90;;;;;;4975189;28;20122;-51
2022/10/22 11:50:58;;;;;;;12.73;6.28;;;16.00;99.90;;;;;;4989795;28;20050;-51
2022/10/22 11:53:24;;;;;;;13.82;6.53;;;16.00;99.90;;;;;;5022348;28;20162;-50
2022/10/22 11:55:52;;;;;;;11.33;5.90;;;16.00;99.90;;;;;;5061374;28;20517;-52
2022/10/22 11:58:29;;;;;;;10.00;5.85;;;16.10;99.90;;;;;;5072016;28;20262;-50
2022/10/22 12:01:17;;;;;;;15.63;6.15;;;16.10;99.90;;;;;;5069510;28;20048;-52
2022/10/22 12:03:53;;;;;;;16.17;5.10;;;16.20;99.90;;;;;;5051177;28;20048;-51
2022/10/22 12:06:23;;;;;;;17.90;6.78;;;16.20;99.90;;;;;;5051612;28;20044;-50
2022/10/22 12:08:49;;;;;;;17.17;4.85;;;16.20;99.90;;;;;;5051121;28;20502;-50
2022/10/22 12:11:18;;;;;;;10.05;4.35;;;16.20;99.90;;;;;;5063405;28;20042;-52
2022/10/22 12:14:14;;;;;;;13.13;4.57;;;16.20;99.90;;;;;;5069818;28;20060;-53
2022/10/22 12:16:55;;;;;;;10.00;3.97;;;16.30;99.90;;;;;;5055498;28;20044;-51
2022/10/22 12:19:21;;;;;;;7.22;3.72;;;16.40;99.90;;;;;;5051694;28;20056;-50
2022/10/22 12:21:52;;;;;;;9.70;3.57;;;16.50;99.90;;;;;;5066411;28;20040;-52
2022/10/22 12:24:21;;;;;;;6.95;3.38;;;16.60;99.90;;;;;;5055851;28;20359;-49
2022/10/22 12:26:48;;;;;;;9.48;4.75;;;16.60;99.90;;;;;;5068959;28;20174;-50
2022/10/22 12:29:16;;;;;;;10.95;3.70;;;16.60;99.90;;;;;;5056796;28;20048;-50
2022/10/22 12:31:43;;;;;;;6.63;3.45;;;16.70;99.90;;;;;;5063623;28;20040;-51
2022/10/22 12:34:20;;;;;;;13.38;3.13;;;16.70;99.90;;;;;;5054589;28;20045;-57
2022/10/22 12:36:46;;;;;;;;;;;16.70;99.90;;;;;;5071712;28;20127;-57
2022/10/22 12:39:15;;;;;;;11.77;4.07;;;16.70;99.90;;;;;;5070737;28;19921;-49
2022/10/22 12:41:42;;;;;;;13.50;3.80;;;16.60;99.90;;;;;;5057459;28;20066;-49
2022/10/22 12:44:12;;;;;;;8.43;3.55;;;16.60;99.90;;;;;;5060207;28;20043;-53
2022/10/22 12:46:38;;;;;;;11.25;3.92;;;16.60;99.90;;;;;;5058650;28;20038;-53
2022/10/22 12:49:06;;;;;;;;;;;16.50;99.90;;;;;;5050993;28;20371;-53
2022/10/22 12:51:32;;;;;;;10.52;3.55;;;16.60;99.90;;;;;;5059298;28;19927;-53
2022/10/22 12:54:06;;;;;;;8.65;3.50;;;16.50;99.90;;;;;;5063663;28;20033;-52
2022/10/22 12:56:34;;;;;;;8.02;2.95;;;16.50;99.90;;;;;;5059153;28;20047;-54
2022/10/22 12:59:02;;;;;;;9.30;3.53;;;16.40;99.90;;;;;;5070417;28;20048;-54